Time;durP1;ratioP1;P1;durP2;ratioP2;P2;SDS_P1;SDS_P2;PMS_P1;PMS_P2;Temp;Humidity;BMP_temperature;BMP_pressure;BME280_temperature;BME280_humidity;BME280_pressure;Samples;Min_cycle;Max_cycle;Signal;HPM_P1;HPM_P2
2022/09/18 00:00:57;;;;;;;13.13;5.35;;;10.20;99.90;;;;;;5033117;28;20104;-53
2022/09/18 00:03:22;;;;;;;10.30;5.05;;;10.20;99.90;;;;;;5042051;28;20129;-53
2022/09/18 00:05:48;;;;;;;16.92;5.18;;;10.30;99.90;;;;;;5035123;28;20472;-53
2022/09/18 00:08:14;;;;;;;8.30;5.15;;;10.20;99.90;;;;;;5041145;28;20079;-54
2022/09/18 00:10:45;;;;;;;9.68;4.88;;;10.30;99.90;;;;;;5041408;28;20536;-53
2022/09/18 00:13:12;;;;;;;11.73;4.47;;;10.20;99.90;;;;;;5037991;28;20410;-53
2022/09/18 00:15:39;;;;;;;10.95;4.50;;;10.20;99.90;;;;;;5039766;28;20044;-53
2022/09/18 00:18:05;;;;;;;10.57;4.65;;;10.20;99.90;;;;;;5040801;28;20476;-53
2022/09/18 00:20:36;;;;;;;9.23;4.45;;;10.20;99.90;;;;;;5041254;28;20032;-53
2022/09/18 00:23:01;;;;;;;9.95;4.88;;;10.20;99.90;;;;;;5041507;28;20112;-53
2022/09/18 00:25:28;;;;;;;15.27;5.05;;;10.10;99.90;;;;;;5039503;28;20141;-52
2022/09/18 00:27:53;;;;;;;14.38;5.47;;;10.20;99.90;;;;;;5040971;28;20066;-53
2022/09/18 00:30:19;;;;;;;8.90;4.82;;;10.20;99.90;;;;;;5039510;28;20033;-53
2022/09/18 00:32:45;;;;;;;14.50;5.85;;;10.20;99.90;;;;;;5039497;28;20025;-53
2022/09/18 00:35:10;;;;;;;9.13;4.35;;;10.20;99.90;;;;;;5040852;28;20043;-53
2022/09/18 00:37:36;;;;;;;15.35;4.68;;;10.20;99.90;;;;;;5041202;28;20025;-53
2022/09/18 00:40:02;;;;;;;9.27;3.80;;;10.20;99.90;;;;;;5041017;28;20025;-54
2022/09/18 00:42:28;;;;;;;8.30;3.92;;;10.20;99.90;;;;;;5036591;28;20746;-54
2022/09/18 00:44:54;;;;;;;13.60;3.90;;;10.10;99.90;;;;;;5038998;28;20067;-53
2022/09/18 00:47:31;;;;;;;8.40;3.53;;;10.20;99.90;;;;;;5040549;28;20037;-54
2022/09/18 00:50:20;;;;;;;16.38;3.92;;;10.10;99.90;;;;;;5038600;28;20040;-54
2022/09/18 00:52:47;;;;;;;10.07;3.95;;;10.10;99.90;;;;;;5038209;28;20049;-54
2022/09/18 00:55:14;;;;;;;14.77;3.63;;;10.10;99.90;;;;;;5019101;28;20624;-53
2022/09/18 00:57:48;;;;;;;8.07;3.47;;;10.10;99.90;;;;;;5020930;28;20033;-54
2022/09/18 01:00:14;;;;;;;14.88;3.65;;;10.10;99.90;;;;;;5036367;28;20160;-54
2022/09/18 01:02:41;;;;;;;9.65;4.05;;;10.10;99.90;;;;;;5018608;28;20105;-54
2022/09/18 01:05:08;;;;;;;11.45;3.33;;;10.10;99.90;;;;;;5019555;28;20033;-54
2022/09/18 01:08:06;;;;;;;12.02;4.30;;;10.10;99.90;;;;;;5019958;28;20475;-54
2022/09/18 01:10:44;;;;;;;12.85;3.13;;;10.10;99.90;;;;;;5020827;28;20495;-54
2022/09/18 01:13:24;;;;;;;12.60;3.03;;;10.00;99.90;;;;;;5020654;28;20071;-54
2022/09/18 01:16:01;;;;;;;11.90;3.88;;;10.00;99.90;;;;;;5020690;28;20121;-54
2022/09/18 01:18:41;;;;;;;10.10;3.00;;;10.00;99.90;;;;;;5020088;28;20056;-54
2022/09/18 01:21:23;;;;;;;9.45;3.15;;;10.00;99.90;;;;;;5049289;28;20102;-54
2022/09/18 01:23:49;;;;;;;12.48;3.40;;;10.00;99.90;;;;;;5019907;28;20030;-54
2022/09/18 01:26:27;;;;;;;10.23;3.15;;;9.90;99.90;;;;;;5018040;28;20129;-54
2022/09/18 01:29:17;;;;;;;9.68;2.80;;;10.00;99.90;;;;;;5018750;28;20420;-54
2022/09/18 01:31:54;;;;;;;11.30;3.80;;;9.90;99.90;;;;;;5019235;28;20104;-54
2022/09/18 01:34:31;;;;;;;12.95;3.17;;;9.90;99.90;;;;;;5018977;28;20057;-54
2022/09/18 01:37:18;;;;;;;18.63;4.15;;;9.80;99.90;;;;;;5020853;28;20069;-54
2022/09/18 01:39:56;;;;;;;14.18;4.05;;;9.80;99.90;;;;;;5019252;28;20394;-53
2022/09/18 01:42:22;;;;;;;;;;;9.80;99.90;;;;;;5019212;28;20109;-54
2022/09/18 01:44:50;;;;;;;14.40;4.25;;;9.80;99.90;;;;;;5018697;28;19982;-54
2022/09/18 01:47:18;;;;;;;13.95;3.80;;;9.80;99.90;;;;;;5020347;28;20044;-54
2022/09/18 01:49:48;;;;;;;10.50;3.92;;;9.80;99.90;;;;;;5019177;28;20547;-54
2022/09/18 01:52:19;;;;;;;13.73;4.45;;;9.80;99.90;;;;;;5018107;28;20037;-54
2022/09/18 01:54:48;;;;;;;15.48;4.55;;;9.70;99.90;;;;;;5018903;28;20891;-53
2022/09/18 01:57:31;;;;;;;11.90;4.63;;;9.70;99.90;;;;;;5020324;28;20090;-53
2022/09/18 02:00:04;;;;;;;14.35;4.07;;;9.60;99.90;;;;;;5019961;28;20021;-54
2022/09/18 02:02:41;;;;;;;10.63;3.75;;;9.60;99.90;;;;;;5018370;28;20034;-54
2022/09/18 02:05:13;;;;;;;19.65;3.70;;;9.60;99.90;;;;;;5019557;28;20025;-53
2022/09/18 02:07:47;;;;;;;13.05;3.80;;;9.50;99.90;;;;;;5018243;28;20587;-54
2022/09/18 02:10:13;;;;;;;10.02;3.35;;;9.50;99.90;;;;;;5017586;28;20026;-54
2022/09/18 02:12:41;;;;;;;11.88;2.92;;;9.50;99.90;;;;;;5019907;28;20033;-54
2022/09/18 02:15:12;;;;;;;10.43;3.28;;;9.50;99.90;;;;;;5018882;28;20129;-54
2022/09/18 02:17:51;;;;;;;7.88;2.95;;;9.40;99.90;;;;;;5018014;28;20022;-54
2022/09/18 02:20:21;;;;;;;10.68;3.33;;;9.40;99.90;;;;;;5017764;28;20140;-54
2022/09/18 02:22:50;;;;;;;7.95;2.72;;;9.40;99.90;;;;;;5018492;28;20109;-54
2022/09/18 02:25:20;;;;;;;9.45;2.70;;;9.40;99.90;;;;;;5019611;28;20029;-54
2022/09/18 02:27:48;;;;;;;7.47;2.17;;;9.30;99.90;;;;;;5019174;28;20018;-54
2022/09/18 02:30:14;;;;;;;10.20;2.65;;;9.30;99.90;;;;;;5017576;28;20053;-54
2022/09/18 02:32:40;;;;;;;5.03;2.42;;;9.20;99.90;;;;;;5019065;28;20063;-53
2022/09/18 02:35:08;;;;;;;11.52;2.42;;;9.20;99.90;;;;;;5018913;28;20524;-53
2022/09/18 02:37:49;;;;;;;10.18;2.97;;;9.10;99.90;;;;;;5017614;28;20481;-54
2022/09/18 02:40:43;;;;;;;7.68;2.72;;;9.10;99.90;;;;;;5010156;28;20714;-54
2022/09/18 02:43:09;;;;;;;12.32;3.20;;;9.00;99.90;;;;;;5010158;28;20413;-54
2022/09/18 02:45:57;;;;;;;10.43;2.90;;;9.00;99.90;;;;;;5009740;28;20485;-54
2022/09/18 02:48:50;;;;;;;7.80;2.72;;;9.00;99.90;;;;;;5009890;28;20022;-53
2022/09/18 02:51:49;;;;;;;8.48;2.90;;;8.90;99.90;;;;;;5009683;28;20785;-54
2022/09/18 02:54:29;;;;;;;14.38;3.13;;;8.90;99.90;;;;;;5008749;28;20045;-54
2022/09/18 02:57:19;;;;;;;7.15;3.03;;;8.90;99.90;;;;;;5009643;28;20030;-54
2022/09/18 02:59:49;;;;;;;10.63;2.95;;;8.80;99.90;;;;;;5009914;28;20038;-53
2022/09/18 03:02:15;;;;;;;8.55;2.85;;;8.80;99.90;;;;;;5009697;28;20049;-53
2022/09/18 03:04:41;;;;;;;11.13;3.13;;;8.70;99.90;;;;;;5009144;28;20111;-53
2022/09/18 03:07:06;;;;;;;10.07;3.13;;;8.70;99.90;;;;;;5009441;28;20179;-54
2022/09/18 03:09:33;;;;;;;9.63;3.00;;;8.70;99.90;;;;;;5008290;28;20026;-53
2022/09/18 03:12:00;;;;;;;12.68;3.00;;;8.70;99.90;;;;;;5009284;28;20485;-54
2022/09/18 03:14:26;;;;;;;;;;;8.70;99.90;;;;;;5010105;28;20156;-54
2022/09/18 03:16:52;;;;;;;8.60;3.50;;;8.60;99.90;;;;;;5009444;28;20045;-53
2022/09/18 03:19:18;;;;;;;12.98;4.28;;;8.60;99.90;;;;;;5009733;28;20040;-54
2022/09/18 03:21:44;;;;;;;10.43;3.35;;;8.50;99.90;;;;;;5009519;28;20414;-54
2022/09/18 03:24:10;;;;;;;15.15;4.53;;;8.40;99.90;;;;;;5009557;28;20029;-54
2022/09/18 03:26:36;;;;;;;11.88;4.03;;;8.40;99.90;;;;;;5011835;28;20421;-54
2022/09/18 03:29:07;;;;;;;12.23;4.43;;;8.40;99.90;;;;;;5012975;28;20426;-54
2022/09/18 03:31:33;;;;;;;10.60;4.35;;;8.30;99.90;;;;;;5012830;28;20112;-54
2022/09/18 03:33:59;;;;;;;17.92;5.20;;;8.30;99.90;;;;;;5012955;28;20113;-53
2022/09/18 03:36:24;;;;;;;19.92;5.72;;;8.30;99.90;;;;;;5012697;28;20044;-54
2022/09/18 03:38:50;;;;;;;9.32;6.10;;;8.30;99.90;;;;;;5012736;28;20028;-54
2022/09/18 03:41:16;;;;;;;10.20;5.30;;;8.30;99.90;;;;;;5012563;28;20119;-54
2022/09/18 03:43:41;;;;;;;12.65;5.03;;;8.30;99.90;;;;;;5012561;28;20497;-54
2022/09/18 03:46:07;;;;;;;13.10;4.50;;;8.10;99.90;;;;;;5012513;28;20117;-54
2022/09/18 03:48:33;;;;;;;11.70;5.40;;;8.20;99.90;;;;;;5012564;28;20469;-54
2022/09/18 03:50:59;;;;;;;10.63;4.82;;;8.20;99.90;;;;;;5012478;28;20040;-53
2022/09/18 03:53:24;;;;;;;11.77;5.05;;;8.20;99.90;;;;;;5012650;28;20049;-54
2022/09/18 03:55:50;;;;;;;12.68;5.28;;;8.30;99.90;;;;;;5012706;28;20087;-54
2022/09/18 03:58:16;;;;;;;10.50;4.68;;;8.20;99.90;;;;;;5012373;28;20567;-53
2022/09/18 04:00:42;;;;;;;16.10;5.30;;;8.20;99.90;;;;;;5027427;28;20033;-53
2022/09/18 04:03:08;;;;;;;8.00;3.78;;;8.20;99.90;;;;;;5012557;28;20030;-53
2022/09/18 04:05:33;;;;;;;6.50;3.83;;;8.20;99.90;;;;;;5012363;28;20112;-53
2022/09/18 04:07:59;;;;;;;11.75;3.55;;;8.20;99.90;;;;;;5012227;28;20065;-54
2022/09/18 04:10:26;;;;;;;8.18;3.72;;;8.30;99.90;;;;;;5010727;28;20556;-54
2022/09/18 04:12:52;;;;;;;11.27;3.47;;;8.20;99.90;;;;;;5012230;28;20038;-53
2022/09/18 04:15:18;;;;;;;16.23;4.18;;;8.20;99.90;;;;;;5011908;28;20295;-54
2022/09/18 04:17:44;;;;;;;8.50;3.92;;;8.20;99.90;;;;;;5012362;28;20029;-54
2022/09/18 04:20:10;;;;;;;7.85;3.53;;;8.20;99.90;;;;;;5027106;28;20148;-53
2022/09/18 04:22:36;;;;;;;10.30;4.10;;;8.10;99.90;;;;;;5011997;28;20525;-53
2022/09/18 04:25:02;;;;;;;13.07;3.78;;;8.10;99.90;;;;;;5011988;28;20473;-54
2022/09/18 04:27:28;;;;;;;12.77;3.47;;;8.10;99.90;;;;;;5011785;28;20368;-53
2022/09/18 04:29:54;;;;;;;7.60;3.50;;;8.00;99.90;;;;;;5011581;28;20477;-51
2022/09/18 04:32:19;;;;;;;26.00;11.20;;;7.90;99.90;;;;;;5011663;28;20108;-52
2022/09/18 04:34:45;;;;;;;39.20;16.67;;;8.00;99.90;;;;;;5011691;28;20034;-52
2022/09/18 04:37:11;;;;;;;18.85;9.45;;;7.90;99.90;;;;;;5010187;28;20057;-52
2022/09/18 04:39:36;;;;;;;14.48;6.25;;;7.90;99.90;;;;;;5011441;28;20014;-52
2022/09/18 04:42:02;;;;;;;11.77;5.43;;;7.90;99.90;;;;;;5011403;28;20057;-52
2022/09/18 04:44:28;;;;;;;15.48;5.72;;;8.00;99.90;;;;;;5011455;28;20041;-52
2022/09/18 04:46:53;;;;;;;10.23;5.43;;;8.00;99.90;;;;;;5011468;28;20033;-52
2022/09/18 04:49:19;;;;;;;13.18;6.00;;;7.90;99.90;;;;;;5026527;28;20030;-52
2022/09/18 04:51:45;;;;;;;13.38;6.32;;;7.90;99.90;;;;;;5011470;28;20401;-52
2022/09/18 04:54:11;;;;;;;12.18;6.72;;;7.90;99.90;;;;;;5011320;28;20426;-52
2022/09/18 04:56:36;;;;;;;15.90;6.10;;;7.90;99.90;;;;;;5011234;28;20034;-53
2022/09/18 04:59:02;;;;;;;14.98;5.63;;;7.90;99.90;;;;;;5011219;28;20433;-52
2022/09/18 05:01:28;;;;;;;13.13;6.05;;;7.90;99.90;;;;;;5026211;28;20041;-52
2022/09/18 05:03:54;;;;;;;17.08;5.97;;;7.90;99.90;;;;;;5011144;28;20559;-52
2022/09/18 05:06:20;;;;;;;12.88;5.90;;;7.90;99.90;;;;;;5011028;28;20145;-52
2022/09/18 05:08:45;;;;;;;15.55;6.88;;;7.90;99.90;;;;;;5009736;28;20030;-51
2022/09/18 05:11:11;;;;;;;14.07;6.88;;;7.90;99.90;;;;;;5009474;28;20119;-52
2022/09/18 05:13:38;;;;;;;15.65;7.00;;;7.90;99.90;;;;;;5009495;28;20106;-51
2022/09/18 05:16:05;;;;;;;15.70;7.20;;;7.90;99.90;;;;;;5024204;28;20160;-52
2022/09/18 05:18:31;;;;;;;15.75;7.03;;;7.90;99.90;;;;;;5031061;28;20106;-55
2022/09/18 05:21:01;;;;;;;11.57;6.40;;;7.90;99.90;;;;;;5030498;28;20060;-53
2022/09/18 05:23:26;;;;;;;13.90;7.47;;;7.80;99.90;;;;;;5028909;28;20108;-53
2022/09/18 05:25:52;;;;;;;13.82;6.85;;;7.80;99.90;;;;;;5030611;28;20969;-53
2022/09/18 05:28:18;;;;;;;13.77;7.95;;;7.80;99.90;;;;;;5030373;28;20096;-52
2022/09/18 05:30:44;;;;;;;14.63;7.20;;;7.80;99.90;;;;;;5030457;28;20040;-53
2022/09/18 05:33:10;;;;;;;14.50;8.10;;;7.80;99.90;;;;;;5038511;28;20476;-53
2022/09/18 05:35:38;;;;;;;14.43;7.43;;;7.80;99.90;;;;;;5050149;28;20469;-53
2022/09/18 05:38:04;;;;;;;20.65;8.57;;;7.80;99.90;;;;;;5050277;28;20335;-53
2022/09/18 05:40:35;;;;;;;18.02;9.10;;;7.80;99.90;;;;;;5046335;28;20506;-52
2022/09/18 05:43:04;;;;;;;14.73;8.95;;;7.90;99.90;;;;;;5030278;28;20033;-53
2022/09/18 05:45:30;;;;;;;16.40;8.18;;;7.90;99.90;;;;;;5030066;28;20108;-53
2022/09/18 05:48:02;;;;;;;21.85;8.57;;;7.90;99.90;;;;;;5029803;28;20037;-52
2022/09/18 05:50:29;;;;;;;18.27;7.68;;;7.90;99.90;;;;;;5028757;28;20030;-52
2022/09/18 05:53:00;;;;;;;16.65;8.15;;;7.90;99.90;;;;;;5029898;28;20021;-52
2022/09/18 05:55:29;;;;;;;18.85;8.68;;;8.00;99.90;;;;;;5043588;28;20049;-52
2022/09/18 05:57:56;;;;;;;16.58;8.32;;;8.00;99.90;;;;;;5029863;28;20587;-53
2022/09/18 06:00:23;;;;;;;13.68;8.82;;;8.00;99.90;;;;;;5018721;28;20033;-53
2022/09/18 06:02:57;;;;;;;13.80;8.32;;;8.00;99.90;;;;;;5019405;28;20022;-54
2022/09/18 06:05:23;;;;;;;12.30;7.93;;;8.10;99.90;;;;;;5022340;28;20021;-52
2022/09/18 06:07:50;;;;;;;13.73;7.88;;;8.20;99.90;;;;;;5026566;28;20025;-53
2022/09/18 06:10:17;;;;;;;12.73;7.93;;;8.20;99.90;;;;;;5027604;28;20544;-53
2022/09/18 06:12:43;;;;;;;16.80;8.07;;;8.20;99.90;;;;;;5027475;28;20030;-53
2022/09/18 06:15:10;;;;;;;16.67;7.75;;;8.20;99.90;;;;;;5024620;28;20038;-52
2022/09/18 06:17:35;;;;;;;17.48;7.90;;;8.30;99.90;;;;;;5016992;28;20037;-53
2022/09/18 06:20:02;;;;;;;11.32;7.22;;;8.20;99.90;;;;;;5018868;28;20021;-52
2022/09/18 06:22:27;;;;;;;12.48;8.18;;;8.40;99.90;;;;;;5015929;28;20117;-54
2022/09/18 06:24:53;;;;;;;16.25;7.93;;;8.40;99.90;;;;;;5017545;28;20171;-56
2022/09/18 06:27:19;;;;;;;14.77;7.22;;;8.40;99.90;;;;;;5018847;28;20139;-53
2022/09/18 06:29:45;;;;;;;12.38;7.85;;;8.40;99.90;;;;;;5015665;28;20086;-53
2022/09/18 06:32:10;;;;;;;12.48;7.03;;;8.50;99.90;;;;;;5017812;28;20029;-53
2022/09/18 06:34:36;;;;;;;14.23;7.93;;;8.50;99.90;;;;;;5018640;28;20015;-52
2022/09/18 06:37:02;;;;;;;13.48;7.85;;;8.60;99.90;;;;;;5016872;28;20464;-53
2022/09/18 06:39:28;;;;;;;14.05;7.75;;;8.60;99.90;;;;;;5018714;28;20033;-52
2022/09/18 06:41:54;;;;;;;13.05;7.32;;;8.60;99.90;;;;;;5018425;28;20706;-52
2022/09/18 06:44:19;;;;;;;13.90;8.23;;;8.60;99.90;;;;;;5016962;28;20069;-52
2022/09/18 06:46:46;;;;;;;15.15;7.78;;;8.70;99.90;;;;;;5018438;28;20041;-52
2022/09/18 06:49:12;;;;;;;15.02;7.78;;;8.70;99.90;;;;;;5028577;28;20029;-52
2022/09/18 06:51:39;;;;;;;13.40;6.95;;;8.70;99.90;;;;;;5028265;28;21347;-52
2022/09/18 06:54:05;;;;;;;11.27;6.88;;;8.70;99.90;;;;;;5021100;28;20053;-53
2022/09/18 06:56:30;;;;;;;15.30;7.35;;;8.70;99.90;;;;;;5020101;28;20064;-53
2022/09/18 06:58:56;;;;;;;13.27;7.40;;;8.70;99.90;;;;;;5018799;28;20048;-52
2022/09/18 07:01:22;;;;;;;10.90;6.70;;;8.70;99.90;;;;;;5020568;28;20030;-53
2022/09/18 07:03:48;;;;;;;17.08;8.40;;;8.70;99.90;;;;;;5022086;28;20548;-53
2022/09/18 07:06:14;;;;;;;17.58;8.20;;;8.80;99.90;;;;;;5021587;28;20064;-54
2022/09/18 07:08:39;;;;;;;14.75;8.18;;;8.80;99.90;;;;;;5023268;28;20061;-53
2022/09/18 07:11:05;;;;;;;17.10;9.43;;;8.90;99.90;;;;;;5029541;28;20099;-53
2022/09/18 07:13:32;;;;;;;16.27;7.97;;;9.00;99.90;;;;;;5035802;28;20473;-53
2022/09/18 07:15:58;;;;;;;11.95;7.75;;;9.10;99.90;;;;;;5026647;28;20128;-54
2022/09/18 07:18:24;;;;;;;13.45;7.03;;;9.30;99.90;;;;;;5043648;28;20025;-54
2022/09/18 07:20:52;;;;;;;11.05;6.35;;;9.40;99.90;;;;;;5045029;28;20029;-53
2022/09/18 07:23:18;;;;;;;12.68;6.43;;;9.40;99.90;;;;;;5064345;28;20029;-53
2022/09/18 07:25:45;;;;;;;11.52;6.30;;;9.50;99.90;;;;;;5043484;28;20083;-53
2022/09/18 07:28:11;;;;;;;13.15;4.90;;;9.60;99.90;;;;;;5044922;28;20104;-54
2022/09/18 07:30:38;;;;;;;8.38;5.22;;;9.70;99.90;;;;;;5044701;28;20083;-53
2022/09/18 07:33:06;;;;;;;13.43;6.15;;;9.70;99.90;;;;;;5043867;28;20025;-53
2022/09/18 07:35:32;;;;;;;8.80;4.57;;;9.70;99.90;;;;;;5044635;28;20104;-53
2022/09/18 07:37:59;;;;;;;7.90;4.22;;;9.80;99.90;;;;;;5044658;28;20489;-53
2022/09/18 07:40:25;;;;;;;6.47;3.80;;;9.80;99.90;;;;;;5028057;28;20025;-54
2022/09/18 07:42:51;;;;;;;5.50;3.20;;;9.80;99.90;;;;;;5045422;28;20075;-52
2022/09/18 07:45:17;;;;;;;6.03;2.97;;;9.90;99.90;;;;;;5019854;28;20284;-53
2022/09/18 07:47:43;;;;;;;6.90;3.33;;;9.90;99.90;;;;;;5021272;28;20041;-53
2022/09/18 07:50:14;;;;;;;5.82;3.40;;;9.90;99.90;;;;;;5019978;28;20014;-54
2022/09/18 07:52:47;;;;;;;7.53;2.97;;;10.00;99.90;;;;;;5019319;28;20025;-52
2022/09/18 07:55:13;;;;;;;5.93;1.98;;;10.10;99.90;;;;;;5020197;28;20060;-54
2022/09/18 07:57:39;;;;;;;6.28;2.13;;;10.10;99.90;;;;;;5021613;28;20404;-54
2022/09/18 08:00:07;;;;;;;4.22;1.95;;;10.00;99.90;;;;;;5019465;28;20192;-53
2022/09/18 08:02:32;;;;;;;5.63;1.92;;;10.10;99.90;;;;;;5020317;28;20406;-53
2022/09/18 08:04:58;;;;;;;3.20;1.52;;;10.10;99.90;;;;;;5020855;28;20515;-53
2022/09/18 08:07:24;;;;;;;4.20;2.00;;;10.20;99.90;;;;;;5019552;28;20384;-55
2022/09/18 08:09:50;;;;;;;4.75;1.77;;;10.30;99.90;;;;;;5048417;28;20022;-53
2022/09/18 08:12:17;;;;;;;5.38;1.50;;;10.40;99.90;;;;;;5018252;28;20549;-54
2022/09/18 08:14:43;;;;;;;2.85;1.48;;;10.30;99.90;;;;;;5020774;28;20053;-54
2022/09/18 08:17:09;;;;;;;3.60;1.30;;;10.40;99.90;;;;;;5027154;28;20033;-54
2022/09/18 08:19:35;;;;;;;3.95;1.90;;;10.40;99.90;;;;;;5022856;28;20028;-53
2022/09/18 08:22:04;;;;;;;3.25;1.70;;;10.40;99.90;;;;;;5019126;28;20040;-53
2022/09/18 08:24:31;;;;;;;4.00;1.20;;;10.60;99.90;;;;;;5028624;28;20018;-54
2022/09/18 08:27:02;;;;;;;9.30;1.25;;;10.70;99.90;;;;;;5046577;28;20124;-53
2022/09/18 08:29:30;;;;;;;2.75;1.60;;;10.90;99.90;;;;;;5030068;28;20113;-53
2022/09/18 08:31:56;;;;;;;3.22;1.38;;;10.80;99.90;;;;;;5018232;28;20235;-53
2022/09/18 08:34:23;;;;;;;3.45;1.40;;;11.00;99.90;;;;;;5020514;28;20033;-53
2022/09/18 08:36:49;;;;;;;3.33;1.38;;;11.10;99.90;;;;;;5021189;28;20026;-53
2022/09/18 08:39:15;;;;;;;4.05;1.70;;;11.10;99.90;;;;;;5000626;28;20096;-53
2022/09/18 08:41:47;;;;;;;1.60;0.82;;;11.10;99.90;;;;;;5018316;28;20025;-53
2022/09/18 08:44:20;;;;;;;2.03;1.02;;;10.90;99.90;;;;;;5018025;28;20040;-54
2022/09/18 08:47:05;;;;;;;2.50;1.20;;;11.00;99.90;;;;;;5018872;28;20128;-53
2022/09/18 08:49:33;;;;;;;2.53;1.30;;;11.00;99.90;;;;;;5033428;28;20420;-54
2022/09/18 08:52:03;;;;;;;2.90;1.20;;;11.00;99.90;;;;;;5033502;28;20045;-53
2022/09/18 08:54:38;;;;;;;2.65;1.20;;;10.90;99.90;;;;;;5027539;28;20029;-54
2022/09/18 08:57:42;;;;;;;4.70;1.48;;;10.70;99.90;;;;;;5028658;28;20121;-54
2022/09/18 09:00:31;;;;;;;2.97;1.60;;;10.70;99.90;;;;;;4995486;28;20044;-53
2022/09/18 09:03:27;;;;;;;3.47;1.80;;;11.40;99.90;;;;;;5012983;28;20029;-53
2022/09/18 09:06:25;;;;;;;2.22;1.30;;;12.00;99.90;;;;;;5018951;28;20078;-54
2022/09/18 09:08:57;;;;;;;2.13;1.33;;;12.40;99.90;;;;;;5017691;28;20029;-54
2022/09/18 09:11:41;;;;;;;2.33;1.85;;;12.30;99.90;;;;;;5017321;28;20018;-54
2022/09/18 09:14:29;;;;;;;1.95;1.30;;;12.40;99.90;;;;;;5019019;28;20018;-53
2022/09/18 09:17:13;;;;;;;3.07;1.50;;;12.70;99.90;;;;;;5019408;28;20038;-54
2022/09/18 09:19:57;;;;;;;5.25;1.45;;;12.90;99.90;;;;;;5016819;28;20029;-54
2022/09/18 09:22:42;;;;;;;3.55;1.00;;;12.90;99.90;;;;;;5032303;28;20540;-54
2022/09/18 09:25:21;;;;;;;1.95;1.10;;;12.90;99.90;;;;;;5037996;28;20036;-54
2022/09/18 09:27:57;;;;;;;3.15;1.55;;;13.20;99.90;;;;;;5038592;28;20071;-53
2022/09/18 09:30:24;;;;;;;1.98;1.25;;;13.30;99.90;;;;;;5038532;28;20113;-54
2022/09/18 09:33:20;;;;;;;2.10;1.40;;;12.80;99.90;;;;;;5014369;28;20029;-54
2022/09/18 09:35:54;;;;;;;2.63;1.60;;;12.90;99.90;;;;;;5035726;28;20045;-53
2022/09/18 09:38:38;;;;;;;2.63;1.33;;;13.20;99.90;;;;;;5037210;28;20057;-54
2022/09/18 09:41:33;;;;;;;4.88;2.30;;;13.40;99.90;;;;;;5048545;28;20053;-54
2022/09/18 09:44:25;;;;;;;2.15;1.20;;;13.40;99.90;;;;;;5036783;28;20160;-54
2022/09/18 09:47:00;;;;;;;4.35;1.90;;;13.20;99.90;;;;;;5038426;28;20025;-54
2022/09/18 09:49:33;;;;;;;5.20;1.40;;;12.80;99.90;;;;;;5036661;28;20029;-52
2022/09/18 09:52:08;;;;;;;2.75;1.42;;;12.70;99.90;;;;;;5036652;28;20025;-54
2022/09/18 09:54:34;;;;;;;4.88;2.10;;;12.60;99.90;;;;;;5036996;28;20021;-53
2022/09/18 09:57:26;;;;;;;4.90;1.92;;;12.50;99.90;;;;;;5023204;28;20511;-54
2022/09/18 10:00:08;;;;;;;7.45;4.22;;;12.50;99.90;;;;;;5005056;28;20037;-53
2022/09/18 10:02:59;;;;;;;8.25;3.45;;;12.60;99.90;;;;;;5018775;28;20043;-52
2022/09/18 10:05:29;;;;;;;5.43;2.60;;;12.60;99.90;;;;;;5031378;28;20040;-53
2022/09/18 10:08:07;;;;;;;4.63;2.28;;;12.50;99.90;;;;;;5032301;28;20103;-54
2022/09/18 10:10:58;;;;;;;5.75;2.60;;;12.50;99.90;;;;;;5028419;28;20112;-53
2022/09/18 10:13:27;;;;;;;6.78;3.08;;;12.40;99.90;;;;;;5032621;28;20033;-53
2022/09/18 10:16:37;;;;;;;3.28;2.13;;;12.30;99.90;;;;;;5020425;28;20052;-53
2022/09/18 10:19:04;;;;;;;5.90;2.53;;;12.00;99.90;;;;;;5015990;28;20026;-53
2022/09/18 10:21:35;;;;;;;5.23;2.70;;;12.00;99.90;;;;;;5016705;28;20139;-52
2022/09/18 10:24:29;;;;;;;5.90;3.08;;;12.00;99.90;;;;;;5011418;28;20545;-53
2022/09/18 10:27:02;;;;;;;4.47;3.05;;;12.10;99.90;;;;;;5016753;28;20034;-53
2022/09/18 10:29:29;;;;;;;36.72;21.90;;;12.00;99.90;;;;;;5011614;28;20110;-53
2022/09/18 10:32:00;;;;;;;22.95;11.88;;;12.00;99.90;;;;;;5017049;28;20508;-53
2022/09/18 10:34:40;;;;;;;20.98;11.15;;;12.10;99.90;;;;;;5018552;28;20044;-53
2022/09/18 10:37:16;;;;;;;9.85;5.57;;;12.10;99.90;;;;;;5023819;28;20468;-53
2022/09/18 10:39:51;;;;;;;6.53;3.60;;;12.10;99.90;;;;;;5019311;28;20029;-54
2022/09/18 10:42:24;;;;;;;4.53;2.95;;;12.10;99.90;;;;;;5021276;28;20029;-53
2022/09/18 10:44:54;;;;;;;3.72;2.30;;;12.10;99.90;;;;;;5017105;28;20026;-52
2022/09/18 10:47:23;;;;;;;3.10;2.47;;;12.10;99.90;;;;;;5021859;28;20061;-53
2022/09/18 10:49:57;;;;;;;3.13;2.00;;;12.00;99.90;;;;;;5021282;28;20026;-53
2022/09/18 10:52:34;;;;;;;2.83;1.80;;;12.00;99.90;;;;;;5021303;28;20049;-51
2022/09/18 10:55:07;;;;;;;3.53;1.80;;;11.80;99.90;;;;;;5004206;28;20033;-52
2022/09/18 10:57:49;;;;;;;5.57;1.73;;;11.70;99.90;;;;;;5007564;28;20121;-52
2022/09/18 11:00:18;;;;;;;3.92;2.50;;;11.50;99.90;;;;;;5003781;28;20049;-53
2022/09/18 11:02:53;;;;;;;3.47;1.85;;;11.50;99.90;;;;;;5020019;28;20389;-52
2022/09/18 11:05:33;;;;;;;5.40;2.35;;;11.30;99.90;;;;;;5018888;28;20025;-52
2022/09/18 11:08:06;;;;;;;3.35;1.60;;;11.20;99.90;;;;;;5023183;28;20038;-54
2022/09/18 11:10:35;;;;;;;2.30;1.70;;;11.10;99.90;;;;;;5017428;28;20033;-52
2022/09/18 11:13:02;;;;;;;3.00;1.90;;;11.20;99.90;;;;;;5023394;28;20128;-53
2022/09/18 11:15:33;;;;;;;;;;;11.30;99.90;;;;;;5031538;28;20053;-53
2022/09/18 11:18:04;;;;;;;8.45;5.68;;;11.20;99.90;;;;;;5032477;28;19912;-53
2022/09/18 11:20:50;;;;;;;4.38;2.70;;;11.40;99.90;;;;;;5024701;28;20021;-53
2022/09/18 11:23:28;;;;;;;2.92;1.55;;;11.50;99.90;;;;;;5022968;28;20420;-53
2022/09/18 11:26:18;;;;;;;2.25;1.65;;;11.40;99.90;;;;;;5022970;28;20428;-53
2022/09/18 11:29:24;;;;;;;4.20;2.80;;;10.90;99.90;;;;;;5032540;28;20033;-53
2022/09/18 11:32:24;;;;;;;7.32;3.00;;;10.80;99.90;;;;;;5017730;28;20043;-53
2022/09/18 11:34:55;;;;;;;11.52;5.22;;;10.60;99.90;;;;;;5032157;28;20041;-54
2022/09/18 11:37:29;;;;;;;11.88;5.53;;;10.60;99.90;;;;;;5032501;28;20021;-53
2022/09/18 11:40:03;;;;;;;8.98;4.55;;;10.50;99.90;;;;;;5013956;28;20048;-53
2022/09/18 11:42:30;;;;;;;123.47;82.93;;;10.50;99.90;;;;;;5023626;28;20041;-53
2022/09/18 11:45:20;;;;;;;14.48;8.27;;;10.50;99.90;;;;;;4999692;28;20065;-53
2022/09/18 11:47:53;;;;;;;7.57;3.20;;;10.50;99.90;;;;;;5016454;28;20120;-53
2022/09/18 11:50:22;;;;;;;5.28;1.80;;;10.40;99.90;;;;;;5022112;28;20032;-52
2022/09/18 11:52:53;;;;;;;4.63;1.77;;;10.40;99.90;;;;;;5028725;28;20044;-52
2022/09/18 11:55:28;;;;;;;7.50;3.17;;;10.40;99.90;;;;;;5028794;28;20033;-53
2022/09/18 11:58:20;;;;;;;5.25;2.08;;;10.50;99.90;;;;;;5022744;28;20029;-52
2022/09/18 12:00:53;;;;;;;2.10;1.00;;;10.50;99.90;;;;;;4984814;28;20046;-53
2022/09/18 12:03:30;;;;;;;3.17;0.75;;;10.40;99.90;;;;;;5010582;28;20489;-53
2022/09/18 12:06:33;;;;;;;5.10;2.47;;;10.30;99.90;;;;;;5011938;28;20034;-52
2022/09/18 12:09:23;;;;;;;2.40;1.38;;;10.30;99.90;;;;;;4950970;29;20035;-52
2022/09/18 12:11:59;;;;;;;3.58;1.73;;;10.40;99.90;;;;;;5009991;28;20117;-52
2022/09/18 12:14:40;;;;;;;5.13;2.47;;;10.40;99.90;;;;;;5017661;28;20025;-52
2022/09/18 12:17:13;;;;;;;9.88;4.50;;;10.30;99.90;;;;;;5036181;28;20049;-53
2022/09/18 12:19:48;;;;;;;9.32;5.05;;;10.40;99.90;;;;;;5051814;28;20503;-53
2022/09/18 12:22:29;;;;;;;7.47;3.80;;;10.40;99.90;;;;;;5040919;28;20031;-52
2022/09/18 12:24:55;;;;;;;8.02;4.30;;;10.40;99.90;;;;;;5039208;28;20477;-53
2022/09/18 12:27:24;;;;;;;11.02;4.10;;;10.30;99.90;;;;;;5013472;28;20681;-52
2022/09/18 12:30:04;;;;;;;9.85;3.65;;;10.40;99.90;;;;;;5037161;28;20025;-53
2022/09/18 12:32:51;;;;;;;5.78;2.47;;;10.40;99.90;;;;;;5031406;28;20032;-52
2022/09/18 12:35:29;;;;;;;7.15;2.90;;;10.40;99.90;;;;;;5012735;28;20045;-52
2022/09/18 12:38:17;;;;;;;7.65;2.58;;;10.30;99.90;;;;;;5030358;28;20029;-55
2022/09/18 12:41:00;;;;;;;4.80;1.90;;;10.40;99.90;;;;;;5030628;28;20132;-52
2022/09/18 12:43:32;;;;;;;4.88;2.17;;;10.30;99.90;;;;;;5029093;28;20144;-53
2022/09/18 12:46:19;;;;;;;6.35;2.53;;;10.20;99.90;;;;;;5029926;28;20026;-52
2022/09/18 12:49:01;;;;;;;4.45;1.90;;;10.30;99.90;;;;;;5032981;28;20036;-53
2022/09/18 12:51:34;;;;;;;4.60;2.05;;;10.30;99.90;;;;;;5035507;28;20029;-53
2022/09/18 12:54:31;;;;;;;111.05;73.32;;;10.40;99.90;;;;;;5042780;28;20074;-53
2022/09/18 12:57:05;;;;;;;14.00;5.30;;;10.40;99.90;;;;;;5035453;28;20035;-53
2022/09/18 12:59:45;;;;;;;6.40;2.40;;;10.40;99.90;;;;;;5039127;28;20013;-53
2022/09/18 13:02:20;;;;;;;8.15;2.90;;;10.40;99.90;;;;;;5031574;28;20051;-53
2022/09/18 13:04:56;;;;;;;5.22;2.00;;;10.40;99.90;;;;;;5036276;28;20038;-54
2022/09/18 13:07:33;;;;;;;6.50;3.05;;;10.40;99.90;;;;;;5040635;28;20120;-53
2022/09/18 13:10:02;;;;;;;8.90;3.53;;;10.40;99.90;;;;;;5031934;28;20506;-53
2022/09/18 13:13:07;;;;;;;9.20;3.90;;;10.40;99.90;;;;;;5033348;28;20108;-53